Time;durP1;ratioP1;P1;durP2;ratioP2;P2;SDS_P1;SDS_P2;PMS_P1;PMS_P2;Temp;Humidity;BMP_temperature;BMP_pressure;BME280_temperature;BME280_humidity;BME280_pressure;Samples;Min_cycle;Max_cycle;Signal;HPM_P1;HPM_P2
2022/02/20 00:01:16;;;;;;;2.08;1.15;;;22.10;32.70;;;;;;5091196;28;20408;-72
2022/02/20 00:03:42;;;;;;;1.85;1.17;;;22.00;32.60;;;;;;5089794;28;20393;-73
2022/02/20 00:06:08;;;;;;;1.90;1.10;;;22.00;32.60;;;;;;5090519;28;20414;-73
2022/02/20 00:08:34;;;;;;;2.38;1.02;;;22.00;32.60;;;;;;5085549;28;20374;-71
2022/02/20 00:11:01;;;;;;;2.20;1.10;;;22.00;32.60;;;;;;5090831;28;20435;-72
2022/02/20 00:13:27;;;;;;;2.38;1.30;;;22.00;32.60;;;;;;5090321;28;20749;-72
2022/02/20 00:15:53;;;;;;;1.48;1.00;;;22.00;32.60;;;;;;5089546;28;20509;-72
2022/02/20 00:18:19;;;;;;;1.90;1.10;;;22.00;32.70;;;;;;5090461;28;20471;-71
2022/02/20 00:20:46;;;;;;;2.40;1.20;;;22.00;32.70;;;;;;5090831;28;20396;-71
2022/02/20 00:23:15;;;;;;;2.20;1.13;;;22.00;32.60;;;;;;5090890;28;20436;-72
2022/02/20 00:25:42;;;;;;;2.33;1.30;;;22.00;32.60;;;;;;5090675;28;20398;-71
2022/02/20 00:28:08;;;;;;;2.17;1.20;;;22.00;32.70;;;;;;5090213;28;20534;-72
2022/02/20 00:30:34;;;;;;;2.03;1.10;;;21.90;32.50;;;;;;5090582;28;20374;-72
2022/02/20 00:33:01;;;;;;;1.92;1.00;;;21.90;32.50;;;;;;5090680;28;20382;-72
2022/02/20 00:35:28;;;;;;;2.28;1.23;;;21.90;32.50;;;;;;5090615;28;20378;-72
2022/02/20 00:37:55;;;;;;;2.15;1.10;;;21.90;32.50;;;;;;5090527;28;20392;-72
2022/02/20 00:40:21;;;;;;;2.20;1.02;;;21.90;32.50;;;;;;5089908;28;20406;-72
2022/02/20 00:42:47;;;;;;;1.58;1.08;;;21.90;32.50;;;;;;5089483;28;20394;-71
2022/02/20 00:45:14;;;;;;;2.33;1.27;;;21.90;32.50;;;;;;5090651;28;20386;-72
2022/02/20 00:47:41;;;;;;;2.07;1.17;;;21.90;32.40;;;;;;5089941;28;20465;-72
2022/02/20 00:50:07;;;;;;;2.38;1.15;;;21.90;32.40;;;;;;5071035;28;20872;-70
2022/02/20 00:52:34;;;;;;;2.15;1.10;;;21.90;32.40;;;;;;5071417;28;20503;-72
2022/02/20 00:55:00;;;;;;;2.17;1.00;;;21.90;32.50;;;;;;5071389;28;20391;-72
2022/02/20 00:57:26;;;;;;;1.67;0.93;;;21.90;32.50;;;;;;5071297;28;20792;-72
2022/02/20 00:59:52;;;;;;;1.75;1.10;;;21.90;32.40;;;;;;5071187;28;20384;-72
2022/02/20 01:02:19;;;;;;;2.20;1.00;;;21.90;32.40;;;;;;5070858;28;20469;-72
2022/02/20 01:04:45;;;;;;;1.85;1.17;;;21.90;32.40;;;;;;5071257;28;20384;-73
2022/02/20 01:07:11;;;;;;;2.40;1.00;;;21.90;32.40;;;;;;5071151;28;20749;-72
2022/02/20 01:09:37;;;;;;;1.60;1.00;;;21.90;32.40;;;;;;5071202;28;20419;-72
2022/02/20 01:12:03;;;;;;;2.00;1.20;;;21.90;32.40;;;;;;5071083;28;20384;-71
2022/02/20 01:14:29;;;;;;;1.73;1.00;;;21.80;32.30;;;;;;5071061;28;20990;-72
2022/02/20 01:16:55;;;;;;;1.80;1.13;;;21.80;32.20;;;;;;5071173;28;20400;-73
2022/02/20 01:19:21;;;;;;;2.00;1.10;;;21.80;32.20;;;;;;5071276;28;20462;-72
2022/02/20 01:21:47;;;;;;;1.95;0.90;;;21.80;32.20;;;;;;5070989;28;20396;-72
2022/02/20 01:24:14;;;;;;;2.03;0.98;;;21.80;32.20;;;;;;5071190;28;20379;-72
2022/02/20 01:26:41;;;;;;;2.22;1.10;;;21.80;32.10;;;;;;5073698;28;20416;-72
2022/02/20 01:29:07;;;;;;;1.60;1.05;;;21.80;32.10;;;;;;5075115;28;20472;-72
2022/02/20 01:31:34;;;;;;;1.63;1.10;;;21.80;32.10;;;;;;5074966;28;20488;-71
2022/02/20 01:34:00;;;;;;;1.90;1.02;;;21.80;32.70;;;;;;5073618;28;20399;-72
2022/02/20 01:36:26;;;;;;;1.73;1.03;;;21.80;32.10;;;;;;5074471;28;20521;-72
2022/02/20 01:38:53;;;;;;;2.40;1.13;;;21.70;32.00;;;;;;5073665;28;20380;-72
2022/02/20 01:41:20;;;;;;;2.40;1.23;;;21.80;32.10;;;;;;5073829;28;20402;-72
2022/02/20 01:43:50;;;;;;;2.13;1.17;;;21.80;32.10;;;;;;5074659;28;20391;-73
2022/02/20 01:46:16;;;;;;;2.13;1.00;;;21.70;32.10;;;;;;5074069;28;20926;-72
2022/02/20 01:48:42;;;;;;;1.83;1.05;;;21.70;32.10;;;;;;5074547;28;20383;-72
2022/02/20 01:51:08;;;;;;;1.85;1.08;;;21.70;32.10;;;;;;5074533;28;20778;-72
2022/02/20 01:53:35;;;;;;;1.40;0.88;;;21.70;32.20;;;;;;5075193;28;20391;-69
2022/02/20 01:56:02;;;;;;;2.45;1.00;;;21.80;32.20;;;;;;5073712;28;20396;-72
2022/02/20 01:58:28;;;;;;;1.50;0.90;;;21.80;32.20;;;;;;5073069;28;20942;-72
2022/02/20 02:00:54;;;;;;;1.50;0.88;;;21.80;32.80;;;;;;5074377;28;20478;-72
2022/02/20 02:03:21;;;;;;;1.80;0.93;;;21.70;32.20;;;;;;5073693;28;20418;-72
2022/02/20 02:05:47;;;;;;;2.00;0.90;;;21.80;32.30;;;;;;5072866;28;20411;-72
2022/02/20 02:08:16;;;;;;;2.00;0.90;;;21.70;32.20;;;;;;5072634;28;20473;-71
2022/02/20 02:10:42;;;;;;;1.40;0.85;;;21.70;32.20;;;;;;5074116;28;20927;-72
2022/02/20 02:13:09;;;;;;;1.67;1.10;;;21.70;32.20;;;;;;5074371;28;20485;-72
2022/02/20 02:15:35;;;;;;;1.50;0.90;;;21.70;32.20;;;;;;5074206;28;20406;-72
2022/02/20 02:18:01;;;;;;;1.73;0.80;;;21.70;32.20;;;;;;5074360;28;20863;-71
2022/02/20 02:20:27;;;;;;;1.38;0.88;;;21.70;32.20;;;;;;5073615;28;20384;-72
2022/02/20 02:22:53;;;;;;;2.30;0.93;;;21.70;32.10;;;;;;5074949;28;20388;-72
2022/02/20 02:25:19;;;;;;;2.20;1.00;;;21.70;32.20;;;;;;5073934;28;20473;-72
2022/02/20 02:27:45;;;;;;;1.40;0.88;;;21.70;32.10;;;;;;5073947;28;20467;-71
2022/02/20 02:30:12;;;;;;;2.83;1.00;;;21.70;32.10;;;;;;5073636;28;20912;-72
2022/02/20 02:32:37;;;;;;;1.95;0.90;;;21.70;32.10;;;;;;5073787;28;20388;-72
2022/02/20 02:35:04;;;;;;;1.55;0.98;;;21.60;32.10;;;;;;5073836;28;20390;-72
2022/02/20 02:37:30;;;;;;;1.50;0.80;;;21.70;32.20;;;;;;5072987;28;20392;-72
2022/02/20 02:39:55;;;;;;;1.50;0.90;;;21.70;32.20;;;;;;5073549;28;20408;-71
2022/02/20 02:42:21;;;;;;;2.57;1.03;;;21.70;32.80;;;;;;5073065;28;20474;-72
2022/02/20 02:44:47;;;;;;;1.95;0.80;;;21.60;32.10;;;;;;5073623;28;20388;-72
2022/02/20 02:47:13;;;;;;;2.20;0.85;;;21.60;32.10;;;;;;5073425;28;20423;-73
2022/02/20 02:49:39;;;;;;;2.10;1.03;;;21.60;32.10;;;;;;5073556;28;20390;-72
2022/02/20 02:52:06;;;;;;;2.00;1.00;;;21.60;32.10;;;;;;5073524;28;20383;-68
2022/02/20 02:54:32;;;;;;;1.33;0.70;;;21.60;32.20;;;;;;5073328;28;20470;-72
2022/02/20 02:56:59;;;;;;;3.50;1.00;;;21.60;32.10;;;;;;5073492;28;20399;-72
2022/02/20 02:59:25;;;;;;;2.00;0.97;;;21.60;32.10;;;;;;5073533;28;20384;-72
2022/02/20 03:01:54;;;;;;;1.25;0.73;;;21.60;32.00;;;;;;5072934;28;20388;-72
2022/02/20 03:04:20;;;;;;;2.03;0.98;;;21.60;32.00;;;;;;5072834;28;20392;-72
2022/02/20 03:06:46;;;;;;;2.40;1.00;;;21.60;32.00;;;;;;5073054;28;20498;-72
2022/02/20 03:09:12;;;;;;;1.65;0.95;;;21.60;32.00;;;;;;5071914;28;20430;-71
2022/02/20 03:11:38;;;;;;;1.50;0.87;;;21.60;32.00;;;;;;5072995;28;20814;-71
2022/02/20 03:14:04;;;;;;;1.52;0.80;;;21.60;32.10;;;;;;5073145;28;20387;-72
2022/02/20 03:16:30;;;;;;;1.60;0.80;;;21.60;32.00;;;;;;5072477;28;20419;-72
2022/02/20 03:18:56;;;;;;;1.42;0.70;;;21.60;32.10;;;;;;5072941;28;20380;-72
2022/02/20 03:21:22;;;;;;;1.42;0.70;;;21.60;32.10;;;;;;5073014;28;20739;-72
2022/02/20 03:23:48;;;;;;;1.38;0.73;;;21.60;32.00;;;;;;5072863;28;20807;-72
2022/02/20 03:26:14;;;;;;;1.50;0.70;;;21.60;32.00;;;;;;5072631;28;20451;-72
2022/02/20 03:28:40;;;;;;;1.00;0.60;;;21.60;32.10;;;;;;5072861;28;20499;-71
2022/02/20 03:31:06;;;;;;;2.05;0.70;;;21.60;32.10;;;;;;5072811;28;20423;-72
2022/02/20 03:33:32;;;;;;;1.48;0.70;;;21.50;32.00;;;;;;5072766;28;20748;-71
2022/02/20 03:35:57;;;;;;;1.45;0.60;;;21.50;32.10;;;;;;5071385;28;20392;-72
2022/02/20 03:38:23;;;;;;;1.58;0.70;;;21.50;32.00;;;;;;5072315;28;20767;-72
2022/02/20 03:40:49;;;;;;;1.10;0.60;;;21.50;32.00;;;;;;5072085;28;20439;-72
2022/02/20 03:43:15;;;;;;;1.35;0.75;;;21.60;32.00;;;;;;5072355;28;20388;-72
2022/02/20 03:45:41;;;;;;;1.80;0.75;;;21.60;32.00;;;;;;5072341;28;20965;-72
2022/02/20 03:48:07;;;;;;;1.37;0.70;;;21.60;31.90;;;;;;5071450;28;20376;-72
2022/02/20 03:50:33;;;;;;;1.80;0.63;;;21.60;31.90;;;;;;5072156;28;21002;-72
2022/02/20 03:53:00;;;;;;;1.40;0.70;;;21.60;31.90;;;;;;5072280;28;20391;-72
2022/02/20 03:55:26;;;;;;;2.13;0.75;;;21.60;31.90;;;;;;5072397;28;20726;-72
2022/02/20 03:57:52;;;;;;;1.30;0.73;;;21.60;31.90;;;;;;5072156;28;20954;-71
2022/02/20 04:00:21;;;;;;;1.17;0.50;;;21.60;31.90;;;;;;5071840;28;20748;-71
2022/02/20 04:02:47;;;;;;;1.90;0.60;;;21.60;31.90;;;;;;5072124;28;20879;-72
2022/02/20 04:05:15;;;;;;;1.48;0.70;;;21.60;31.90;;;;;;5072170;28;20394;-69
2022/02/20 04:07:42;;;;;;;1.27;0.60;;;21.60;31.90;;;;;;5072033;28;21002;-72
2022/02/20 04:10:10;;;;;;;1.30;0.73;;;21.60;31.90;;;;;;5072051;28;20417;-72
2022/02/20 04:12:36;;;;;;;1.90;0.70;;;21.70;32.00;;;;;;5071720;28;20949;-72
2022/02/20 04:15:06;;;;;;;1.65;0.85;;;21.60;32.50;;;;;;5072015;28;20391;-72
2022/02/20 04:17:39;;;;;;;1.52;0.80;;;21.60;32.00;;;;;;5071852;28;20450;-70
2022/02/20 04:20:05;;;;;;;1.67;0.52;;;21.60;31.90;;;;;;5071996;28;20478;-72
2022/02/20 04:22:31;;;;;;;1.50;0.63;;;21.60;31.90;;;;;;5071409;28;20468;-72
2022/02/20 04:24:57;;;;;;;2.05;0.68;;;21.60;32.00;;;;;;5071667;28;20438;-71
2022/02/20 04:27:23;;;;;;;1.40;0.65;;;21.60;32.00;;;;;;5071792;28;20416;-72
2022/02/20 04:29:49;;;;;;;1.13;0.57;;;21.60;32.00;;;;;;5071719;28;20913;-73
2022/02/20 04:32:15;;;;;;;1.65;0.70;;;21.60;32.00;;;;;;5070296;28;20470;-71
2022/02/20 04:34:41;;;;;;;2.20;0.82;;;21.50;32.00;;;;;;5070151;28;20414;-72
2022/02/20 04:37:07;;;;;;;1.35;0.60;;;21.50;32.00;;;;;;5071755;28;20768;-72
2022/02/20 04:39:33;;;;;;;1.75;0.70;;;21.50;32.00;;;;;;5071394;28;20392;-72
2022/02/20 04:41:59;;;;;;;1.55;0.60;;;21.60;32.00;;;;;;5071579;28;20414;-72
2022/02/20 04:44:27;;;;;;;1.60;0.63;;;21.50;32.00;;;;;;5071154;28;20384;-71
2022/02/20 04:46:53;;;;;;;1.80;0.80;;;21.50;32.00;;;;;;5071349;28;20474;-72
2022/02/20 04:49:19;;;;;;;1.13;0.60;;;21.50;32.00;;;;;;5071497;28;20380;-72
2022/02/20 04:51:45;;;;;;;1.27;0.60;;;21.50;32.00;;;;;;5071463;28;20864;-72
2022/02/20 04:54:11;;;;;;;1.00;0.60;;;21.50;32.00;;;;;;5070208;28;20839;-72
2022/02/20 04:56:37;;;;;;;1.80;0.80;;;21.50;32.00;;;;;;5071129;28;20482;-71
2022/02/20 04:59:03;;;;;;;1.40;0.70;;;21.60;32.00;;;;;;5071135;28;20459;-71
2022/02/20 05:01:29;;;;;;;2.00;0.70;;;21.60;32.00;;;;;;5070060;28;20490;-72
2022/02/20 05:03:54;;;;;;;1.50;0.60;;;21.50;32.00;;;;;;5070197;28;20717;-72
2022/02/20 05:06:27;;;;;;;1.50;0.70;;;21.50;32.00;;;;;;5071019;28;20415;-72
2022/02/20 05:08:54;;;;;;;1.40;0.70;;;21.50;32.00;;;;;;5071562;28;20856;-72
2022/02/20 05:11:23;;;;;;;1.33;0.68;;;21.50;32.00;;;;;;5071420;28;20430;-72
2022/02/20 05:13:50;;;;;;;1.92;0.85;;;21.50;31.90;;;;;;5071229;28;20391;-72
2022/02/20 05:16:16;;;;;;;2.05;0.80;;;21.50;31.90;;;;;;5071077;28;20391;-71
2022/02/20 05:18:41;;;;;;;1.25;0.80;;;21.50;32.00;;;;;;5071054;28;20467;-72
2022/02/20 05:21:07;;;;;;;1.47;0.67;;;21.50;31.90;;;;;;5071182;28;20522;-72
2022/02/20 05:23:33;;;;;;;1.30;0.60;;;21.50;32.00;;;;;;5069971;28;20437;-72
2022/02/20 05:26:01;;;;;;;1.80;0.70;;;21.50;32.00;;;;;;5071230;28;20410;-72
2022/02/20 05:28:27;;;;;;;2.00;0.70;;;21.50;32.00;;;;;;5071985;28;20759;-71
2022/02/20 05:30:53;;;;;;;1.40;0.80;;;21.50;32.00;;;;;;5070407;28;20482;-73
2022/02/20 05:33:19;;;;;;;1.40;0.68;;;21.50;32.00;;;;;;5071244;28;20388;-72
2022/02/20 05:35:45;;;;;;;2.30;0.80;;;21.50;32.10;;;;;;5071069;28;20383;-67
2022/02/20 05:38:11;;;;;;;2.45;0.80;;;21.50;32.10;;;;;;5069735;28;20392;-72
2022/02/20 05:40:38;;;;;;;1.30;0.70;;;21.50;32.10;;;;;;5070165;28;20408;-72
2022/02/20 05:43:05;;;;;;;1.55;0.70;;;21.50;32.10;;;;;;5070968;28;20392;-71
2022/02/20 05:45:32;;;;;;;2.03;0.82;;;21.50;32.10;;;;;;5070695;28;20439;-71
2022/02/20 05:47:58;;;;;;;1.67;0.80;;;21.50;32.20;;;;;;5070936;28;20391;-73
2022/02/20 05:50:24;;;;;;;1.77;0.73;;;21.50;32.10;;;;;;5070498;28;20395;-71
2022/02/20 05:52:50;;;;;;;1.63;0.75;;;21.40;32.10;;;;;;5069527;28;20909;-72
2022/02/20 05:55:16;;;;;;;2.10;0.80;;;21.50;32.10;;;;;;5070834;28;20467;-72
2022/02/20 05:57:44;;;;;;;1.98;0.80;;;21.50;32.10;;;;;;5069468;28;20495;-72
2022/02/20 06:00:12;;;;;;;1.75;0.80;;;21.50;32.10;;;;;;5070804;28;20886;-72
2022/02/20 06:02:37;;;;;;;2.03;0.80;;;21.50;32.10;;;;;;5070324;28;20436;-72
2022/02/20 06:05:04;;;;;;;1.40;0.80;;;21.50;32.10;;;;;;5070821;28;20467;-72
2022/02/20 06:07:30;;;;;;;1.55;0.90;;;21.50;32.10;;;;;;5069342;28;20470;-73
2022/02/20 06:09:55;;;;;;;1.55;0.82;;;21.50;32.10;;;;;;5069462;28;20922;-72
2022/02/20 06:12:21;;;;;;;2.60;0.90;;;21.50;32.10;;;;;;5072727;28;20483;-72
2022/02/20 06:14:47;;;;;;;1.27;0.70;;;21.50;32.10;;;;;;5073764;28;20388;-72
2022/02/20 06:17:13;;;;;;;1.48;0.82;;;21.50;32.20;;;;;;5074215;28;20471;-72
2022/02/20 06:19:39;;;;;;;1.42;0.80;;;21.40;32.70;;;;;;5106710;28;20430;-72
2022/02/20 06:22:06;;;;;;;1.55;0.75;;;21.40;32.10;;;;;;5074252;28;20892;-72
2022/02/20 06:24:33;;;;;;;1.60;0.80;;;21.40;32.20;;;;;;5073478;28;20513;-72
2022/02/20 06:26:59;;;;;;;1.40;0.75;;;21.40;32.20;;;;;;5073976;28;20821;-71
2022/02/20 06:29:26;;;;;;;1.27;0.70;;;21.40;32.20;;;;;;5074114;28;20469;-71
2022/02/20 06:31:52;;;;;;;1.50;0.75;;;21.40;32.20;;;;;;5073922;28;20462;-72
2022/02/20 06:34:18;;;;;;;2.13;0.90;;;21.40;32.20;;;;;;5073695;28;20510;-70
2022/02/20 06:36:44;;;;;;;1.40;0.77;;;21.40;32.20;;;;;;5073871;28;20380;-71
2022/02/20 06:39:10;;;;;;;1.30;0.80;;;21.40;32.10;;;;;;5073363;28;20479;-72
2022/02/20 06:41:37;;;;;;;2.25;0.95;;;21.40;32.20;;;;;;5073780;28;20410;-72
2022/02/20 06:44:04;;;;;;;2.60;0.80;;;21.40;32.20;;;;;;5073572;28;20767;-73
2022/02/20 06:46:30;;;;;;;2.10;0.70;;;21.40;32.00;;;;;;5073078;28;20499;-70
2022/02/20 06:48:55;;;;;;;3.47;1.17;;;21.50;32.40;;;;;;5073615;28;20380;-72
2022/02/20 06:51:21;;;;;;;2.78;1.10;;;21.50;33.20;;;;;;5073658;28;20387;-73
2022/02/20 06:53:47;;;;;;;2.42;0.90;;;21.50;32.40;;;;;;5073486;28;20383;-74
2022/02/20 06:56:13;;;;;;;3.55;1.20;;;21.40;33.60;;;;;;5073468;28;20445;-74
2022/02/20 06:58:39;;;;;;;4.73;1.00;;;21.40;33.60;;;;;;5072955;28;20717;-74
2022/02/20 07:01:06;;;;;;;3.80;1.20;;;21.30;33.30;;;;;;5073492;28;20380;-74
2022/02/20 07:03:32;;;;;;;2.80;1.10;;;21.40;33.50;;;;;;5073265;28;20486;-73
2022/02/20 07:05:58;;;;;;;3.55;1.10;;;21.40;33.70;;;;;;5072139;28;20412;-73
2022/02/20 07:08:24;;;;;;;3.45;1.10;;;21.40;34.00;;;;;;5071814;28;20388;-71
2022/02/20 07:10:50;;;;;;;5.38;1.30;;;21.40;34.80;;;;;;5073011;28;20483;-73
2022/02/20 07:13:17;;;;;;;4.22;1.10;;;21.40;34.20;;;;;;5072436;28;20400;-72
2022/02/20 07:15:43;;;;;;;3.75;1.25;;;21.30;34.30;;;;;;5089059;28;20749;-73
2022/02/20 07:18:09;;;;;;;4.82;1.13;;;21.40;34.10;;;;;;5071788;28;20392;-73
2022/02/20 07:20:35;;;;;;;3.37;1.20;;;21.30;35.40;;;;;;5071351;28;20757;-72
2022/02/20 07:23:01;;;;;;;3.40;1.08;;;21.30;35.00;;;;;;5071313;28;20399;-73
2022/02/20 07:25:27;;;;;;;4.97;1.33;;;21.30;34.50;;;;;;5072794;28;20752;-72
2022/02/20 07:27:54;;;;;;;3.65;1.20;;;21.20;34.80;;;;;;5072848;28;20399;-73
2022/02/20 07:30:22;;;;;;;5.03;1.30;;;21.20;34.40;;;;;;5071250;28;20395;-67
2022/02/20 07:32:48;;;;;;;3.65;1.00;;;21.20;35.30;;;;;;5071156;28;20400;-74
2022/02/20 07:35:14;;;;;;;2.10;1.15;;;21.30;34.20;;;;;;5072870;28;20384;-74
2022/02/20 07:37:41;;;;;;;2.92;1.02;;;21.20;34.20;;;;;;5071616;28;20398;-73
2022/02/20 07:40:07;;;;;;;4.28;1.17;;;21.20;34.50;;;;;;5072364;28;20474;-72
2022/02/20 07:42:34;;;;;;;2.90;1.00;;;21.20;34.40;;;;;;5070752;28;20387;-72
2022/02/20 07:45:00;;;;;;;5.35;1.10;;;21.20;34.60;;;;;;5072362;28;20411;-73
2022/02/20 07:47:26;;;;;;;3.50;1.08;;;21.30;36.00;;;;;;5072457;28;20749;-73
2022/02/20 07:49:52;;;;;;;3.05;1.02;;;21.20;34.60;;;;;;5072413;28;20426;-74
2022/02/20 07:52:19;;;;;;;3.83;1.20;;;21.20;35.10;;;;;;5072477;28;20396;-73
2022/02/20 07:54:45;;;;;;;4.97;1.58;;;21.30;35.00;;;;;;5071843;28;20402;-73
2022/02/20 07:57:11;;;;;;;5.05;1.20;;;21.40;35.80;;;;;;5105658;28;20896;-73
2022/02/20 07:59:37;;;;;;;3.60;1.27;;;21.40;36.60;;;;;;5072165;28;20380;-73
2022/02/20 08:02:04;;;;;;;3.67;1.17;;;21.30;37.00;;;;;;5072211;28;20383;-73
2022/02/20 08:04:30;;;;;;;3.57;1.40;;;21.40;36.70;;;;;;5071520;28;20384;-71
2022/02/20 08:06:56;;;;;;;2.67;1.30;;;21.40;37.50;;;;;;5072004;28;20415;-73
2022/02/20 08:09:23;;;;;;;2.80;1.17;;;21.50;37.00;;;;;;5072047;28;20921;-73
2022/02/20 08:11:50;;;;;;;4.07;1.10;;;21.40;36.70;;;;;;5072030;28;20856;-73
2022/02/20 08:14:15;;;;;;;4.73;1.20;;;21.50;39.20;;;;;;5072103;28;20392;-74
2022/02/20 08:16:41;;;;;;;4.18;0.93;;;21.50;39.10;;;;;;5071368;28;20799;-73
2022/02/20 08:19:07;;;;;;;5.55;1.30;;;21.50;37.60;;;;;;5071763;28;20383;-74
2022/02/20 08:21:33;;;;;;;4.22;1.20;;;21.50;39.80;;;;;;5071774;28;20427;-73
2022/02/20 08:23:59;;;;;;;2.50;1.07;;;21.50;39.10;;;;;;5071824;28;20375;-74
2022/02/20 08:26:25;;;;;;;4.15;1.13;;;21.50;37.80;;;;;;5071600;28;20477;-73
2022/02/20 08:28:51;;;;;;;4.82;1.00;;;21.50;39.60;;;;;;5071183;28;20387;-71
2022/02/20 08:31:18;;;;;;;4.47;1.23;;;21.60;37.10;;;;;;5077221;28;20390;-72
2022/02/20 08:33:45;;;;;;;3.88;1.10;;;21.60;37.00;;;;;;5063724;28;20387;-71
2022/02/20 08:36:11;;;;;;;4.70;0.98;;;21.60;37.20;;;;;;5073221;28;20403;-72
2022/02/20 08:38:38;;;;;;;4.43;1.10;;;21.60;36.90;;;;;;5068660;28;20423;-66
2022/02/20 08:41:04;;;;;;;3.63;1.10;;;21.70;37.00;;;;;;5071977;28;20436;-71
2022/02/20 08:43:30;;;;;;;5.70;1.00;;;21.70;37.00;;;;;;5070630;28;20384;-73
2022/02/20 08:45:56;;;;;;;4.85;0.90;;;21.70;36.90;;;;;;5089723;28;20963;-67
2022/02/20 08:48:22;;;;;;;6.68;1.00;;;21.60;36.20;;;;;;5091001;28;20421;-66
2022/02/20 08:50:48;;;;;;;4.13;1.00;;;21.60;36.60;;;;;;5091036;28;20475;-67
2022/02/20 08:53:14;;;;;;;4.45;0.98;;;21.60;35.90;;;;;;5090942;28;20382;-72
2022/02/20 08:55:40;;;;;;;4.80;0.93;;;21.60;36.00;;;;;;5089760;28;20390;-71
2022/02/20 08:58:08;;;;;;;3.35;0.80;;;21.50;36.00;;;;;;5091474;28;20397;-71
2022/02/20 09:00:37;;;;;;;5.00;0.90;;;21.50;36.40;;;;;;5089835;28;20378;-70
2022/02/20 09:03:03;;;;;;;3.97;0.95;;;21.50;35.90;;;;;;5088799;28;20382;-73
2022/02/20 09:05:29;;;;;;;4.22;1.38;;;21.50;36.00;;;;;;5089979;28;20382;-72
2022/02/20 09:07:54;;;;;;;5.07;1.20;;;21.60;35.90;;;;;;5090675;28;20865;-72
2022/02/20 09:10:20;;;;;;;3.47;1.15;;;21.60;36.40;;;;;;5090268;28;20995;-71
2022/02/20 09:12:45;;;;;;;4.67;1.10;;;21.60;35.50;;;;;;5088349;28;21010;-71
2022/02/20 09:15:11;;;;;;;3.28;1.10;;;21.60;36.40;;;;;;5088669;28;20386;-72
2022/02/20 09:17:38;;;;;;;2.22;0.80;;;21.70;36.20;;;;;;5088935;28;20853;-72
2022/02/20 09:20:05;;;;;;;2.58;0.90;;;21.60;35.80;;;;;;5089882;28;20944;-72
2022/02/20 09:22:31;;;;;;;3.50;0.80;;;21.60;35.70;;;;;;5089725;28;20385;-72
2022/02/20 09:24:57;;;;;;;2.05;0.70;;;21.60;35.60;;;;;;5089941;28;20374;-71
2022/02/20 09:27:23;;;;;;;2.70;0.85;;;21.50;35.50;;;;;;5089868;28;21012;-71
2022/02/20 09:29:49;;;;;;;2.78;0.70;;;21.60;35.50;;;;;;5088603;28;20472;-70
2022/02/20 09:32:17;;;;;;;2.60;0.88;;;21.60;35.10;;;;;;5090332;28;20386;-70
2022/02/20 09:34:43;;;;;;;3.50;0.85;;;21.60;35.20;;;;;;5089464;28;20393;-71
2022/02/20 09:37:08;;;;;;;2.20;0.90;;;21.60;35.50;;;;;;5088808;28;20382;-71
2022/02/20 09:39:34;;;;;;;1.50;0.73;;;21.60;35.10;;;;;;5089915;28;20406;-71
2022/02/20 09:42:00;;;;;;;1.52;0.80;;;21.60;35.30;;;;;;5090179;28;20397;-72
2022/02/20 09:44:29;;;;;;;2.03;1.00;;;21.60;34.70;;;;;;5089847;28;20425;-71
2022/02/20 09:46:55;;;;;;;1.95;0.80;;;21.60;35.00;;;;;;5092848;28;20483;-71
2022/02/20 09:49:28;;;;;;;2.00;0.70;;;21.70;35.50;;;;;;5093828;28;20382;-71
2022/02/20 09:51:57;;;;;;;1.95;0.80;;;21.60;35.00;;;;;;5093746;28;20874;-72
2022/02/20 09:54:23;;;;;;;1.48;0.68;;;21.70;35.10;;;;;;5092321;28;20397;-72
2022/02/20 09:56:49;;;;;;;3.10;1.00;;;21.70;34.90;;;;;;5092889;28;20394;-71
2022/02/20 09:59:15;;;;;;;2.22;0.80;;;21.60;34.80;;;;;;5092355;28;20465;-72
2022/02/20 10:02:06;;;;;;;2.97;1.17;;;21.60;34.50;;;;;;5092214;28;20397;-72
2022/02/20 10:04:41;;;;;;;2.88;1.10;;;21.70;34.60;;;;;;5090955;28;20461;-72
2022/02/20 10:07:28;;;;;;;2.70;0.93;;;21.60;34.90;;;;;;5093156;28;20402;-71
2022/02/20 10:09:55;;;;;;;3.20;1.00;;;21.70;34.50;;;;;;5091331;28;20378;-71
2022/02/20 10:12:23;;;;;;;1.38;0.80;;;21.80;34.70;;;;;;5092027;28;20422;-72
2022/02/20 10:14:49;;;;;;;1.70;0.90;;;21.80;34.40;;;;;;5090211;28;20390;-70
2022/02/20 10:17:18;;;;;;;1.55;0.70;;;21.80;34.30;;;;;;5093301;28;20386;-70
2022/02/20 10:19:58;;;;;;;2.00;0.98;;;21.70;34.30;;;;;;5093117;28;20954;-71
2022/02/20 10:22:27;;;;;;;3.07;1.10;;;21.80;34.20;;;;;;5092782;28;20467;-71
2022/02/20 10:25:08;;;;;;;2.78;1.17;;;21.80;34.00;;;;;;5091502;28;20394;-71
2022/02/20 10:27:35;;;;;;;1.85;0.77;;;21.80;34.00;;;;;;5090773;28;20437;-72
2022/02/20 10:30:16;;;;;;;1.75;0.93;;;21.80;34.00;;;;;;5093099;28;20421;-72
2022/02/20 10:32:43;;;;;;;3.80;1.20;;;21.90;34.60;;;;;;5091538;28;20477;-72
2022/02/20 10:46:29;;;;;;;4.20;1.50;;;22.10;35.50;;;;;;5128939;27;20374;-75
2022/02/20 10:48:57;;;;;;;3.92;1.30;;;22.40;41.80;;;;;;5125215;28;20398;-79
2022/02/20 10:51:23;;;;;;;7.10;1.50;;;22.40;42.30;;;;;;5127061;28;20471;-79
2022/02/20 10:53:50;;;;;;;3.55;1.20;;;22.50;41.20;;;;;;5126910;28;20422;-76
2022/02/20 10:56:39;;;;;;;5.10;1.43;;;22.60;39.50;;;;;;5126368;28;20476;-75
2022/02/20 10:59:09;;;;;;;7.95;1.30;;;22.60;39.60;;;;;;5126882;28;20518;-77
2022/02/20 11:01:35;;;;;;;10.77;1.70;;;22.80;39.40;;;;;;5108830;28;20395;-78
2022/02/20 11:04:02;;;;;;;4.50;1.20;;;22.80;39.40;;;;;;5125671;27;20383;-75
2022/02/20 11:06:29;;;;;;;7.30;1.50;;;22.90;38.60;;;;;;5126233;28;20399;-76
2022/02/20 11:08:56;;;;;;;6.30;1.10;;;23.00;39.00;;;;;;5124581;28;20471;-76
2022/02/20 11:11:36;;;;;;;3.63;0.90;;;23.10;37.90;;;;;;5126968;27;20419;-73
2022/02/20 11:14:04;;;;;;;4.43;0.95;;;23.10;37.60;;;;;;5124677;28;20407;-76
2022/02/20 11:16:32;;;;;;;4.00;0.90;;;23.10;37.20;;;;;;5125250;28;20858;-77
2022/02/20 11:19:02;;;;;;;4.13;1.08;;;23.20;37.20;;;;;;5125175;28;20957;-77
2022/02/20 11:21:29;;;;;;;4.78;1.17;;;23.30;37.00;;;;;;5125307;28;20693;-77
2022/02/20 11:23:58;;;;;;;3.03;1.13;;;23.30;37.00;;;;;;5126355;28;20376;-73
2022/02/20 11:26:26;;;;;;;3.80;0.90;;;23.40;36.80;;;;;;5124473;28;20406;-70
2022/02/20 11:28:53;;;;;;;5.90;1.40;;;23.40;36.90;;;;;;5125409;28;20406;-72
2022/02/20 11:31:19;;;;;;;4.90;1.00;;;23.50;36.50;;;;;;5126187;27;20509;-75
2022/02/20 11:33:51;;;;;;;4.78;0.85;;;23.50;36.60;;;;;;5125233;28;20880;-70
2022/02/20 11:36:30;;;;;;;4.40;0.88;;;23.50;36.40;;;;;;5127623;28;20401;-76
2022/02/20 11:39:13;;;;;;;7.93;0.80;;;23.60;36.50;;;;;;5125934;28;20406;-77
2022/02/20 11:42:07;;;;;;;3.50;0.70;;;23.70;36.20;;;;;;5143097;27;20396;-77
2022/02/20 11:44:53;;;;;;;4.28;0.90;;;23.70;35.80;;;;;;5118296;28;20404;-70
2022/02/20 11:47:41;;;;;;;7.15;1.10;;;23.80;35.90;;;;;;5109660;28;20380;-72
2022/02/20 11:50:16;;;;;;;5.60;0.60;;;23.80;36.50;;;;;;5112806;28;20979;-77
2022/02/20 11:53:03;;;;;;;6.28;0.80;;;23.80;36.40;;;;;;5111277;28;20877;-77
2022/02/20 11:55:41;;;;;;;2.80;0.70;;;23.90;36.10;;;;;;5112321;28;20412;-77
2022/02/20 11:58:13;;;;;;;6.63;0.88;;;23.90;36.10;;;;;;5111429;28;20376;-77
2022/02/20 12:01:02;;;;;;;6.20;0.95;;;23.80;36.20;;;;;;5109919;28;20469;-71
2022/02/20 12:03:41;;;;;;;2.60;0.73;;;23.80;35.80;;;;;;5111100;28;20939;-75
2022/02/20 12:06:09;;;;;;;5.10;1.05;;;23.80;35.80;;;;;;5110558;28;20518;-77
2022/02/20 12:08:36;;;;;;;3.50;0.70;;;23.70;35.70;;;;;;5109002;28;20390;-71
2022/02/20 12:11:13;;;;;;;3.55;0.75;;;23.70;35.50;;;;;;5113044;28;20749;-70
2022/02/20 12:13:59;;;;;;;3.63;0.80;;;23.60;35.50;;;;;;5108793;28;20389;-77
2022/02/20 12:16:32;;;;;;;2.07;0.67;;;23.70;35.30;;;;;;5111264;28;20423;-75
2022/02/20 12:19:11;;;;;;;1.73;0.63;;;23.70;35.20;;;;;;5111535;28;20907;-72
2022/02/20 12:21:56;;;;;;;1.33;0.60;;;23.70;35.00;;;;;;5110816;28;20380;-74
2022/02/20 12:24:55;;;;;;;4.17;0.70;;;23.60;35.00;;;;;;5111375;28;20939;-71
2022/02/20 12:27:27;;;;;;;2.97;0.73;;;23.60;34.80;;;;;;5105879;28;20384;-69
2022/02/20 12:30:03;;;;;;;2.97;0.70;;;23.70;34.90;;;;;;5112024;28;20392;-76
2022/02/20 12:32:30;;;;;;;4.00;0.70;;;23.70;34.80;;;;;;5112983;28;20385;-75
2022/02/20 12:35:02;;;;;;;3.83;0.70;;;23.70;34.80;;;;;;5108782;28;20495;-69
2022/02/20 12:37:37;;;;;;;2.85;0.75;;;23.70;34.90;;;;;;5109976;28;20414;-76
2022/02/20 12:40:16;;;;;;;3.10;0.60;;;23.60;35.00;;;;;;5109722;28;20396;-75
2022/02/20 12:42:47;;;;;;;4.55;0.90;;;23.60;35.40;;;;;;5110681;28;20385;-75
2022/02/20 12:45:19;;;;;;;11.55;0.80;;;23.70;35.50;;;;;;5110061;28;20412;-77
2022/02/20 12:47:49;;;;;;;4.50;0.85;;;23.70;35.80;;;;;;5111078;28;20385;-75
2022/02/20 12:50:17;;;;;;;7.50;0.75;;;23.80;35.70;;;;;;5109622;28;20463;-75
2022/02/20 12:52:44;;;;;;;5.85;1.13;;;23.90;35.70;;;;;;5111391;28;20388;-72
2022/02/20 12:55:14;;;;;;;7.00;2.03;;;24.00;35.60;;;;;;5111036;28;20443;-76
2022/02/20 12:57:40;;;;;;;8.10;2.33;;;24.20;35.90;;;;;;5111722;28;20427;-78
2022/02/20 13:00:12;;;;;;;7.93;1.73;;;24.30;36.30;;;;;;5110696;28;20400;-70
2022/02/20 13:02:44;;;;;;;6.72;2.00;;;24.40;36.40;;;;;;5109497;28;20408;-74